Time;durP1;ratioP1;P1;durP2;ratioP2;P2;SDS_P1;SDS_P2;PMS_P1;PMS_P2;Temp;Humidity;BMP_temperature;BMP_pressure;BME280_temperature;BME280_humidity;BME280_pressure;Samples;Min_cycle;Max_cycle;Signal;HPM_P1;HPM_P2
2022/10/13 00:00:22;;;;;;;13.85;7.82;;;15.20;99.90;;;;;;5057864;28;20339;-79
2022/10/13 00:02:48;;;;;;;16.25;8.10;;;15.20;99.90;;;;;;5054302;28;20040;-79
2022/10/13 00:05:14;;;;;;;13.90;7.35;;;15.10;99.90;;;;;;5057281;28;20070;-79
2022/10/13 00:07:39;;;;;;;14.90;7.65;;;15.20;99.90;;;;;;5052754;28;20047;-79
2022/10/13 00:10:05;;;;;;;11.85;7.90;;;15.10;99.90;;;;;;5054102;28;20009;-79
2022/10/13 00:12:34;;;;;;;15.13;7.70;;;15.10;99.90;;;;;;5051134;28;20091;-79
2022/10/13 00:15:00;;;;;;;12.60;7.15;;;15.10;99.90;;;;;;5051001;28;20027;-79
2022/10/13 00:17:25;;;;;;;12.07;8.00;;;15.10;99.90;;;;;;5049732;28;20112;-79
2022/10/13 00:19:51;;;;;;;13.93;7.63;;;15.10;99.90;;;;;;5063429;28;20176;-79
2022/10/13 00:22:16;;;;;;;12.48;7.18;;;15.10;99.90;;;;;;5060691;28;20035;-79
2022/10/13 00:24:42;;;;;;;13.10;8.30;;;15.10;99.90;;;;;;5054585;28;20024;-79
2022/10/13 00:27:07;;;;;;;14.10;7.28;;;15.10;99.90;;;;;;5058215;28;20020;-79
2022/10/13 00:29:33;;;;;;;16.02;8.52;;;15.10;99.90;;;;;;5059215;28;20095;-79
2022/10/13 00:31:59;;;;;;;13.77;7.53;;;15.10;99.90;;;;;;5062298;28;20060;-79
2022/10/13 00:34:25;;;;;;;16.08;7.68;;;15.10;99.90;;;;;;5059214;28;20417;-79
2022/10/13 00:36:50;;;;;;;14.18;8.30;;;15.10;99.90;;;;;;5058233;28;20060;-79
2022/10/13 00:39:16;;;;;;;17.25;7.80;;;15.10;99.90;;;;;;5060006;28;20025;-79
2022/10/13 00:41:42;;;;;;;13.00;7.10;;;15.20;99.90;;;;;;5057246;28;20032;-79
2022/10/13 00:44:52;;;;;;;12.95;7.68;;;15.20;99.90;;;;;;5055736;28;20021;-79
2022/10/13 00:47:19;;;;;;;10.10;7.25;;;15.20;99.90;;;;;;5041857;28;20043;-79
2022/10/13 00:49:45;;;;;;;12.82;7.30;;;15.20;99.90;;;;;;5054793;28;20541;-79
2022/10/13 00:52:12;;;;;;;13.75;6.90;;;15.20;99.90;;;;;;5053022;28;20118;-79
2022/10/13 00:54:38;;;;;;;13.82;7.28;;;15.20;99.90;;;;;;5055493;28;20044;-79
2022/10/13 00:57:06;;;;;;;11.68;7.25;;;15.20;99.90;;;;;;5061558;28;20087;-79
2022/10/13 00:59:31;;;;;;;12.15;7.50;;;15.20;99.90;;;;;;5058695;28;20032;-80
2022/10/13 01:01:58;;;;;;;13.70;6.82;;;15.20;99.90;;;;;;5060685;28;20111;-80
2022/10/13 01:04:28;;;;;;;14.00;7.20;;;15.20;99.90;;;;;;5056522;28;20052;-80
2022/10/13 01:06:55;;;;;;;11.63;7.07;;;15.20;99.90;;;;;;5065419;28;20020;-79
2022/10/13 01:09:21;;;;;;;15.40;7.50;;;15.20;99.90;;;;;;5054775;28;20476;-79
2022/10/13 01:11:57;;;;;;;11.35;6.97;;;15.20;99.90;;;;;;5055965;28;20032;-79
2022/10/13 01:14:41;;;;;;;14.95;7.60;;;15.20;99.90;;;;;;5058318;28;20043;-79
2022/10/13 01:17:21;;;;;;;15.02;8.45;;;15.20;99.90;;;;;;5065341;28;20041;-79
2022/10/13 01:20:20;;;;;;;12.55;6.70;;;15.20;99.90;;;;;;5065564;28;20093;-79
2022/10/13 01:23:23;;;;;;;13.00;7.43;;;15.20;99.90;;;;;;5059568;28;20078;-79
2022/10/13 01:26:17;;;;;;;20.90;8.82;;;15.20;99.90;;;;;;5065054;28;20082;-79
2022/10/13 01:29:10;;;;;;;16.27;8.18;;;15.20;99.90;;;;;;5061371;28;20541;-79
2022/10/13 01:31:38;;;;;;;13.73;8.75;;;15.20;99.90;;;;;;5057930;28;20020;-79
2022/10/13 01:34:38;;;;;;;18.10;9.40;;;15.20;99.90;;;;;;5058970;28;20518;-79
2022/10/13 01:37:19;;;;;;;12.18;8.57;;;15.20;99.90;;;;;;5056590;28;20029;-79
2022/10/13 01:39:51;;;;;;;16.40;8.70;;;15.30;99.90;;;;;;5064847;28;20032;-80
2022/10/13 01:42:24;;;;;;;13.30;8.40;;;15.30;99.90;;;;;;5055280;28;20155;-79
2022/10/13 01:44:53;;;;;;;16.42;7.95;;;15.30;99.90;;;;;;5064339;28;20395;-79
2022/10/13 01:47:20;;;;;;;17.88;7.93;;;15.30;99.90;;;;;;5052519;28;20515;-79
2022/10/13 01:49:49;;;;;;;12.93;7.88;;;15.30;99.90;;;;;;5053976;28;20033;-79
2022/10/13 01:52:18;;;;;;;15.02;8.25;;;15.30;99.90;;;;;;5051906;28;20066;-79
2022/10/13 01:54:53;;;;;;;12.73;7.93;;;15.30;99.90;;;;;;5055177;28;20083;-79
2022/10/13 01:57:36;;;;;;;10.90;7.05;;;15.40;99.90;;;;;;5058584;28;20202;-79
2022/10/13 02:00:15;;;;;;;13.02;7.60;;;15.30;99.90;;;;;;5061516;28;20016;-79
2022/10/13 02:02:58;;;;;;;12.02;7.22;;;15.40;99.90;;;;;;5055885;28;20048;-79
2022/10/13 02:05:47;;;;;;;16.83;7.82;;;15.40;99.90;;;;;;5064399;28;20025;-79
2022/10/13 02:08:42;;;;;;;13.93;7.43;;;15.40;99.90;;;;;;5056956;28;20474;-79
2022/10/13 02:11:17;;;;;;;13.43;7.13;;;15.40;99.90;;;;;;5053283;28;20017;-79
2022/10/13 02:13:53;;;;;;;11.52;7.35;;;15.40;99.90;;;;;;5063663;28;20021;-79
2022/10/13 02:16:22;;;;;;;17.60;7.63;;;15.40;99.90;;;;;;5051613;28;20104;-79
2022/10/13 02:18:49;;;;;;;13.10;7.35;;;15.40;99.90;;;;;;5070115;28;20021;-79
2022/10/13 02:21:16;;;;;;;11.02;8.50;;;15.50;99.90;;;;;;5064580;28;20029;-79
2022/10/13 02:23:43;;;;;;;17.55;8.90;;;15.40;99.90;;;;;;5065987;28;20477;-79
2022/10/13 02:26:09;;;;;;;15.63;8.25;;;15.50;99.90;;;;;;5062984;28;20108;-79
2022/10/13 02:28:39;;;;;;;14.77;7.63;;;15.50;99.90;;;;;;5057070;28;20070;-79
2022/10/13 02:31:07;;;;;;;15.32;8.77;;;15.40;99.90;;;;;;5063215;28;20098;-79
2022/10/13 02:33:32;;;;;;;18.40;8.68;;;15.40;99.90;;;;;;5056946;28;20065;-79
2022/10/13 02:35:58;;;;;;;16.75;9.18;;;15.30;99.90;;;;;;5059040;28;20452;-79
2022/10/13 02:38:24;;;;;;;18.23;8.38;;;15.40;99.90;;;;;;5056094;28;20363;-79
2022/10/13 02:40:50;;;;;;;13.70;7.85;;;15.30;99.90;;;;;;5055635;28;20048;-78
2022/10/13 02:43:15;;;;;;;18.67;8.50;;;15.40;99.90;;;;;;5055435;28;20516;-79
2022/10/13 02:45:42;;;;;;;16.27;8.18;;;15.40;99.90;;;;;;5052608;28;20021;-79
2022/10/13 02:48:07;;;;;;;15.65;8.88;;;15.40;99.90;;;;;;5053747;28;20452;-79
2022/10/13 02:50:33;;;;;;;17.05;8.27;;;15.40;99.90;;;;;;5051424;28;20052;-79
2022/10/13 02:52:59;;;;;;;17.25;7.93;;;15.40;99.90;;;;;;5050890;28;20021;-79
2022/10/13 02:55:24;;;;;;;19.23;8.25;;;15.40;99.90;;;;;;5056549;28;20107;-79
2022/10/13 02:57:50;;;;;;;15.02;8.52;;;15.50;99.90;;;;;;5057084;28;21011;-78
2022/10/13 03:00:16;;;;;;;19.25;8.40;;;15.40;99.90;;;;;;5059062;28;20473;-79
2022/10/13 03:02:42;;;;;;;14.68;7.90;;;15.50;99.90;;;;;;5054649;28;20025;-79
2022/10/13 03:05:09;;;;;;;19.50;8.27;;;15.50;99.90;;;;;;5057805;28;20024;-78
2022/10/13 03:07:34;;;;;;;16.58;8.02;;;15.50;99.90;;;;;;5053255;28;20064;-79
2022/10/13 03:10:00;;;;;;;18.90;8.68;;;15.60;99.90;;;;;;5054670;28;20063;-79
2022/10/13 03:12:26;;;;;;;12.82;8.10;;;15.60;99.90;;;;;;5057113;28;20106;-79
2022/10/13 03:14:51;;;;;;;13.18;8.05;;;15.60;99.90;;;;;;5051551;28;20025;-79
2022/10/13 03:17:17;;;;;;;15.63;8.48;;;15.70;99.90;;;;;;5050137;28;20082;-79
2022/10/13 03:19:43;;;;;;;17.40;8.50;;;15.70;99.90;;;;;;5061726;28;20056;-79
2022/10/13 03:22:08;;;;;;;16.15;7.70;;;15.70;99.90;;;;;;5061580;28;20362;-79
2022/10/13 03:24:34;;;;;;;13.77;8.38;;;15.70;99.90;;;;;;5055258;28;20169;-78
2022/10/13 03:27:00;;;;;;;14.38;8.55;;;15.80;99.90;;;;;;5058241;28;20021;-78
2022/10/13 03:29:26;;;;;;;15.07;8.82;;;15.80;99.90;;;;;;5059584;28;20484;-79
2022/10/13 03:31:51;;;;;;;15.38;8.90;;;15.80;99.90;;;;;;5063857;28;20029;-78
2022/10/13 03:34:19;;;;;;;15.95;8.45;;;15.80;99.90;;;;;;5058482;28;20119;-79
2022/10/13 03:36:44;;;;;;;15.45;8.75;;;15.90;99.90;;;;;;5059057;28;20025;-79
2022/10/13 03:39:10;;;;;;;16.10;9.13;;;15.80;99.90;;;;;;5057132;28;20398;-78
2022/10/13 03:41:35;;;;;;;15.93;8.63;;;15.80;99.90;;;;;;5055384;28;20501;-79
2022/10/13 03:44:01;;;;;;;16.58;9.27;;;15.80;99.90;;;;;;5052274;28;20513;-79
2022/10/13 03:46:28;;;;;;;21.92;10.40;;;15.80;99.90;;;;;;5053971;28;20036;-79
2022/10/13 03:48:54;;;;;;;17.38;9.55;;;15.80;99.90;;;;;;5056313;28;20029;-79
2022/10/13 03:51:21;;;;;;;18.20;9.13;;;15.80;99.90;;;;;;5050976;28;20021;-79
2022/10/13 03:53:47;;;;;;;18.35;9.32;;;15.80;99.90;;;;;;5049518;28;20453;-78
2022/10/13 03:56:19;;;;;;;16.73;9.32;;;15.80;99.90;;;;;;5057857;28;20452;-79
2022/10/13 03:58:45;;;;;;;24.88;9.60;;;15.80;99.90;;;;;;5057321;28;20412;-79
2022/10/13 04:01:12;;;;;;;17.15;9.57;;;15.80;99.90;;;;;;5055188;28;20024;-79
2022/10/13 04:03:38;;;;;;;17.65;9.73;;;15.80;99.90;;;;;;5056687;28;20013;-79
2022/10/13 04:06:05;;;;;;;19.77;10.43;;;15.90;99.90;;;;;;5052976;28;20487;-79
2022/10/13 04:08:33;;;;;;;17.38;10.27;;;15.80;99.90;;;;;;5055019;28;20474;-79
2022/10/13 04:11:05;;;;;;;16.50;10.05;;;15.90;99.90;;;;;;5054111;28;20449;-79
2022/10/13 04:13:31;;;;;;;17.48;10.43;;;15.80;99.90;;;;;;5055491;28;20017;-78
2022/10/13 04:16:02;;;;;;;21.20;11.20;;;15.90;99.90;;;;;;5053832;28;20025;-78
2022/10/13 04:18:28;;;;;;;17.95;10.32;;;15.90;99.90;;;;;;5056350;28;20107;-78
2022/10/13 04:20:53;;;;;;;19.23;10.63;;;15.90;99.90;;;;;;5062317;28;20104;-79
2022/10/13 04:23:19;;;;;;;23.38;11.35;;;15.90;99.90;;;;;;5058625;28;20032;-79
2022/10/13 04:25:45;;;;;;;23.23;12.00;;;15.90;99.90;;;;;;5061635;28;20029;-79
2022/10/13 04:28:11;;;;;;;23.98;12.77;;;15.90;99.90;;;;;;5057358;28;20033;-79
2022/10/13 04:30:37;;;;;;;20.98;12.48;;;15.90;99.90;;;;;;5063156;28;20036;-79
2022/10/13 04:33:02;;;;;;;19.02;11.35;;;15.90;99.90;;;;;;5063107;28;20052;-79
2022/10/13 04:35:28;;;;;;;18.45;12.10;;;15.90;99.90;;;;;;5057952;28;20033;-78
2022/10/13 04:37:56;;;;;;;24.80;14.63;;;15.80;99.90;;;;;;5061410;28;20300;-79
2022/10/13 04:40:22;;;;;;;20.92;13.95;;;15.80;99.90;;;;;;5056364;28;20013;-78
2022/10/13 04:42:48;;;;;;;29.45;15.30;;;15.80;99.90;;;;;;5058641;28;20518;-79
2022/10/13 04:45:14;;;;;;;25.08;16.02;;;15.80;99.90;;;;;;5054696;28;20074;-79
2022/10/13 04:47:39;;;;;;;27.30;15.88;;;15.90;99.90;;;;;;5055625;28;20078;-79
2022/10/13 04:50:05;;;;;;;27.45;14.82;;;15.90;99.90;;;;;;5053541;28;20505;-78
2022/10/13 04:52:32;;;;;;;29.00;14.82;;;16.00;99.90;;;;;;5053269;28;20029;-79
2022/10/13 04:54:57;;;;;;;29.50;14.63;;;16.00;99.90;;;;;;5071707;28;20091;-78
2022/10/13 04:57:23;;;;;;;22.35;13.32;;;16.00;99.90;;;;;;5058524;28;20501;-79
2022/10/13 04:59:49;;;;;;;27.85;14.10;;;16.00;99.90;;;;;;5060893;28;20028;-79
2022/10/13 05:02:14;;;;;;;28.63;14.77;;;16.10;99.90;;;;;;5056463;28;20028;-79
2022/10/13 05:04:40;;;;;;;26.58;14.77;;;16.10;99.90;;;;;;5057608;28;20508;-79
2022/10/13 05:07:05;;;;;;;26.20;14.93;;;16.10;99.90;;;;;;5057351;28;20025;-79
2022/10/13 05:09:31;;;;;;;24.48;14.90;;;16.10;99.90;;;;;;5054893;28;20211;-79
2022/10/13 05:11:57;;;;;;;31.52;15.40;;;16.10;99.90;;;;;;5055613;28;20028;-79
2022/10/13 05:14:22;;;;;;;24.98;15.80;;;16.10;99.90;;;;;;5052937;28;20021;-79
2022/10/13 05:16:48;;;;;;;27.75;14.15;;;16.10;99.90;;;;;;5052503;28;20488;-79
2022/10/13 05:19:14;;;;;;;26.80;15.95;;;16.20;99.90;;;;;;5058472;28;20029;-79
2022/10/13 05:21:40;;;;;;;27.35;15.88;;;16.20;99.90;;;;;;5057765;28;20021;-79
2022/10/13 05:24:06;;;;;;;28.70;15.85;;;16.20;99.90;;;;;;5061068;28;20081;-79
2022/10/13 05:26:34;;;;;;;30.30;16.15;;;16.20;99.90;;;;;;5056699;28;20381;-79
2022/10/13 05:29:02;;;;;;;31.02;16.30;;;16.20;99.90;;;;;;5067098;28;20051;-83
2022/10/13 05:31:29;;;;;;;35.92;18.35;;;16.10;99.90;;;;;;5084810;28;20420;-83
2022/10/13 05:33:55;;;;;;;29.65;17.80;;;16.10;99.90;;;;;;5057318;28;20063;-82
2022/10/13 05:36:24;;;;;;;33.67;17.67;;;16.10;99.90;;;;;;5060809;28;20446;-82
2022/10/13 05:38:55;;;;;;;33.45;17.67;;;16.10;99.90;;;;;;5055583;28;20397;-83
2022/10/13 05:41:22;;;;;;;37.17;18.20;;;16.20;99.90;;;;;;5058237;28;20074;-84
2022/10/13 05:43:56;;;;;;;34.33;17.02;;;16.20;99.90;;;;;;5053806;28;20044;-82
2022/10/13 05:46:22;;;;;;;39.97;19.27;;;16.20;99.90;;;;;;5055577;28;20017;-82
2022/10/13 05:48:48;;;;;;;35.25;17.60;;;16.20;99.90;;;;;;5052376;28;20079;-83
2022/10/13 05:51:22;;;;;;;34.78;17.85;;;16.20;99.90;;;;;;5052957;28;20504;-85
2022/10/13 05:53:52;;;;;;;38.30;19.25;;;16.20;99.90;;;;;;5061124;28;20028;-84
2022/10/13 05:56:24;;;;;;;34.13;16.73;;;16.30;99.90;;;;;;5061700;28;20494;-84
2022/10/13 05:58:53;;;;;;;29.90;17.23;;;16.30;99.90;;;;;;5063427;28;20044;-83
2022/10/13 06:01:23;;;;;;;31.90;17.77;;;16.30;99.90;;;;;;5072829;28;20024;-83
2022/10/13 06:03:52;;;;;;;37.67;17.95;;;16.30;99.90;;;;;;5075928;28;20028;-83
2022/10/13 06:06:18;;;;;;;30.67;18.17;;;16.30;99.90;;;;;;5077418;28;20012;-83
2022/10/13 06:08:43;;;;;;;27.95;17.33;;;16.20;99.90;;;;;;5083505;28;20012;-83
2022/10/13 06:11:09;;;;;;;33.13;16.75;;;16.20;99.90;;;;;;5073144;28;20020;-83
2022/10/13 06:13:35;;;;;;;28.67;17.35;;;16.20;99.90;;;;;;5074065;28;20013;-83
2022/10/13 06:16:01;;;;;;;34.05;16.58;;;16.30;99.90;;;;;;5076405;28;20539;-83
2022/10/13 06:18:26;;;;;;;27.08;16.58;;;16.30;99.90;;;;;;5072216;28;20067;-83
2022/10/13 06:20:52;;;;;;;30.08;16.05;;;16.30;99.90;;;;;;5073352;28;20027;-83
2022/10/13 06:23:18;;;;;;;29.27;17.10;;;16.30;99.90;;;;;;5080354;28;20020;-83
2022/10/13 06:25:48;;;;;;;31.70;16.55;;;16.40;99.90;;;;;;5073800;28;20060;-83
2022/10/13 06:28:14;;;;;;;34.60;16.42;;;16.40;99.90;;;;;;5069780;28;20020;-83
2022/10/13 06:30:41;;;;;;;35.78;15.98;;;16.40;99.90;;;;;;5068386;28;20047;-83
2022/10/13 06:33:08;;;;;;;30.10;16.63;;;16.50;99.90;;;;;;5059071;28;20496;-83
2022/10/13 06:35:35;;;;;;;29.65;16.05;;;16.40;99.90;;;;;;5062177;28;20025;-83
2022/10/13 06:38:01;;;;;;;31.75;15.13;;;16.40;99.90;;;;;;5065096;28;20108;-83
2022/10/13 06:40:26;;;;;;;26.55;14.95;;;16.40;99.90;;;;;;5056922;28;20400;-83
2022/10/13 06:42:52;;;;;;;27.25;15.43;;;16.40;99.90;;;;;;5059278;28;20028;-83
2022/10/13 06:45:20;;;;;;;29.55;15.77;;;16.40;99.90;;;;;;5053088;28;20402;-83
2022/10/13 06:47:46;;;;;;;23.98;14.45;;;16.40;99.90;;;;;;5048400;28;20044;-83
2022/10/13 06:50:11;;;;;;;30.38;14.80;;;16.50;99.90;;;;;;5043780;28;20485;-83
2022/10/13 06:52:37;;;;;;;26.23;15.30;;;16.40;99.90;;;;;;5052464;28;20082;-83
2022/10/13 06:55:04;;;;;;;26.85;14.55;;;16.50;99.90;;;;;;5059668;28;20052;-83
2022/10/13 06:57:29;;;;;;;30.80;15.93;;;16.50;99.90;;;;;;5054213;28;20052;-83
2022/10/13 06:59:55;;;;;;;30.63;15.70;;;16.60;99.90;;;;;;5066686;28;20067;-83
2022/10/13 07:02:21;;;;;;;30.08;14.77;;;16.60;99.90;;;;;;5053490;28;20070;-84
2022/10/13 07:04:46;;;;;;;37.03;16.33;;;16.60;99.90;;;;;;5052013;28;20075;-84
2022/10/13 07:07:13;;;;;;;25.58;14.52;;;16.60;99.90;;;;;;5054855;28;20521;-83
2022/10/13 07:09:39;;;;;;;24.77;14.52;;;16.70;99.90;;;;;;5050795;28;20024;-84
2022/10/13 07:12:06;;;;;;;27.50;14.68;;;16.70;99.90;;;;;;5069015;28;20036;-84
2022/10/13 07:14:32;;;;;;;27.67;14.57;;;16.80;99.90;;;;;;5078377;28;20066;-84
2022/10/13 07:16:57;;;;;;;28.85;14.25;;;16.80;99.90;;;;;;5064122;28;20025;-83
2022/10/13 07:19:23;;;;;;;26.70;14.27;;;16.80;99.90;;;;;;5052193;28;20039;-83
2022/10/13 07:21:48;;;;;;;30.85;15.32;;;16.90;99.90;;;;;;5049673;28;20182;-83
2022/10/13 07:24:14;;;;;;;35.28;16.40;;;16.90;99.90;;;;;;5055528;28;20457;-83
2022/10/13 07:26:40;;;;;;;27.40;15.00;;;16.90;99.90;;;;;;5060204;28;20478;-83
2022/10/13 07:29:06;;;;;;;32.78;15.25;;;17.00;99.90;;;;;;5083364;28;20033;-82
2022/10/13 07:31:31;;;;;;;30.65;15.57;;;17.00;99.90;;;;;;5084715;28;20264;-82
2022/10/13 07:33:58;;;;;;;28.38;14.98;;;17.00;99.90;;;;;;5062024;28;20052;-81
2022/10/13 07:36:24;;;;;;;28.38;14.82;;;17.00;99.90;;;;;;5065660;28;20036;-82
2022/10/13 07:38:50;;;;;;;22.95;14.48;;;17.00;99.90;;;;;;5071300;28;20032;-82
2022/10/13 07:41:16;;;;;;;28.98;15.15;;;17.00;99.90;;;;;;5071885;28;20056;-82
2022/10/13 07:43:42;;;;;;;32.67;15.70;;;17.10;99.90;;;;;;5069035;28;20021;-82
2022/10/13 07:46:10;;;;;;;30.08;14.93;;;17.10;99.90;;;;;;5064189;28;20103;-82
2022/10/13 07:48:36;;;;;;;28.20;15.13;;;17.10;99.90;;;;;;5069529;28;20033;-83
2022/10/13 07:51:07;;;;;;;30.45;15.52;;;17.10;99.90;;;;;;5072498;28;20106;-82
2022/10/13 07:53:34;;;;;;;27.85;15.55;;;17.00;99.90;;;;;;5063809;28;20302;-82
2022/10/13 07:56:06;;;;;;;24.83;14.85;;;17.10;99.90;;;;;;5068670;28;20032;-82
2022/10/13 07:58:33;;;;;;;28.67;14.73;;;17.10;99.90;;;;;;5075320;28;20047;-82
2022/10/13 08:01:00;;;;;;;28.42;15.70;;;17.10;99.90;;;;;;5063647;28;20025;-82
2022/10/13 08:03:26;;;;;;;38.40;17.25;;;17.20;99.90;;;;;;5070866;28;20480;-82
2022/10/13 08:05:52;;;;;;;39.05;17.23;;;17.20;99.90;;;;;;5078893;28;20350;-82
2022/10/13 08:08:18;;;;;;;32.33;16.27;;;17.20;99.90;;;;;;5071349;28;20131;-82
2022/10/13 08:10:44;;;;;;;28.42;15.35;;;17.20;99.90;;;;;;5063862;28;20017;-82
2022/10/13 08:13:10;;;;;;;31.65;16.27;;;17.20;99.90;;;;;;5062394;28;20015;-83
2022/10/13 08:15:43;;;;;;;30.17;15.85;;;17.20;99.90;;;;;;5060329;28;20197;-84
2022/10/13 08:18:11;;;;;;;28.30;15.85;;;17.20;99.90;;;;;;5077551;28;20025;-84
2022/10/13 08:20:44;;;;;;;36.22;16.00;;;17.20;99.90;;;;;;5061661;28;20021;-82
2022/10/13 08:23:13;;;;;;;30.98;15.80;;;17.20;99.90;;;;;;5059924;28;20549;-82
2022/10/13 08:25:40;;;;;;;28.70;17.02;;;17.10;99.90;;;;;;5070164;28;20360;-82
2022/10/13 08:28:17;;;;;;;31.42;16.90;;;17.10;99.90;;;;;;5056665;28;20067;-82
2022/10/13 08:30:43;;;;;;;30.85;16.52;;;17.20;99.90;;;;;;5072673;28;20359;-81
2022/10/13 08:33:08;;;;;;;26.80;14.90;;;17.20;99.90;;;;;;5066620;28;20071;-82
2022/10/13 08:35:34;;;;;;;29.60;15.75;;;17.20;99.90;;;;;;5070543;28;20138;-83
2022/10/13 08:38:00;;;;;;;31.08;16.67;;;17.30;99.90;;;;;;5062503;28;20040;-82
2022/10/13 08:40:25;;;;;;;40.80;15.48;;;17.30;99.90;;;;;;5055642;28;20032;-83
2022/10/13 08:42:51;;;;;;;30.13;15.00;;;17.40;99.90;;;;;;5067733;28;20075;-82
2022/10/13 08:45:30;;;;;;;31.27;14.38;;;17.50;99.90;;;;;;5075205;28;20068;-83
2022/10/13 08:48:01;;;;;;;31.85;14.38;;;17.60;99.90;;;;;;5068050;28;20324;-83
2022/10/13 08:50:32;;;;;;;29.90;14.10;;;17.60;99.90;;;;;;5081163;28;20058;-82
2022/10/13 08:53:01;;;;;;;33.40;14.52;;;17.60;99.90;;;;;;5068461;28;20025;-82
2022/10/13 08:55:33;;;;;;;29.65;14.45;;;17.50;99.90;;;;;;5053085;28;20397;-81
2022/10/13 08:58:00;;;;;;;30.92;13.88;;;17.50;99.90;;;;;;5068143;28;20047;-81
2022/10/13 09:00:28;;;;;;;32.13;15.15;;;17.40;99.90;;;;;;5056319;28;20021;-82
2022/10/13 09:03:03;;;;;;;32.30;14.75;;;17.50;99.90;;;;;;5052903;28;20056;-82
2022/10/13 09:05:52;;;;;;;32.88;15.02;;;17.40;99.90;;;;;;5058426;28;20028;-82
2022/10/13 09:08:19;;;;;;;34.40;15.32;;;17.40;99.90;;;;;;5057450;28;20027;-82
2022/10/13 09:10:50;;;;;;;32.70;14.68;;;17.30;99.90;;;;;;5059848;28;20025;-83
2022/10/13 09:13:16;;;;;;;28.67;15.57;;;17.30;99.90;;;;;;5062629;28;20025;-82
2022/10/13 09:15:43;;;;;;;31.50;16.27;;;17.20;99.90;;;;;;5069814;28;20025;-83
2022/10/13 09:18:11;;;;;;;34.05;16.85;;;17.10;99.90;;;;;;5062809;28;20397;-83
2022/10/13 09:20:38;;;;;;;34.97;16.45;;;17.10;99.90;;;;;;5057880;28;20013;-79
2022/10/13 09:23:18;;;;;;;32.72;16.88;;;17.10;99.90;;;;;;5059684;28;20063;-78
2022/10/13 09:25:48;;;;;;;37.42;17.77;;;17.10;99.90;;;;;;5068320;28;20041;-78
2022/10/13 09:28:19;;;;;;;31.83;17.08;;;17.10;99.90;;;;;;5052768;28;20020;-78
2022/10/13 09:30:46;;;;;;;36.13;17.05;;;17.10;99.90;;;;;;5064042;28;20539;-78
2022/10/13 09:33:11;;;;;;;36.13;17.42;;;17.20;99.90;;;;;;5061177;28;20505;-79
2022/10/13 09:36:09;;;;;;;38.72;15.98;;;17.40;99.90;;;;;;5059280;28;20021;-79
2022/10/13 09:38:35;;;;;;;35.63;15.15;;;17.50;99.90;;;;;;5062639;28;20028;-80
2022/10/13 09:41:08;;;;;;;29.05;14.73;;;17.60;99.90;;;;;;5061588;28;20728;-80
2022/10/13 09:43:43;;;;;;;33.40;15.30;;;17.60;99.90;;;;;;5069975;28;20137;-79
2022/10/13 09:46:11;;;;;;;;;;;17.50;99.90;;;;;;5074237;28;20023;-79
2022/10/13 09:48:41;;;;;;;34.78;14.77;;;17.50;99.90;;;;;;5062271;28;19916;-79
2022/10/13 09:51:32;;;;;;;36.67;16.75;;;17.60;99.90;;;;;;5058925;28;20032;-79
2022/10/13 09:53:57;;;;;;;42.55;17.73;;;17.50;99.90;;;;;;5066709;28;20024;-80
2022/10/13 09:56:37;;;;;;;30.17;16.20;;;17.40;99.90;;;;;;5063149;28;20021;-80
2022/10/13 09:59:13;;;;;;;26.00;15.75;;;17.50;99.90;;;;;;5064475;28;20209;-80
2022/10/13 10:01:43;;;;;;;37.17;17.65;;;17.50;99.90;;;;;;5062628;28;20070;-80
2022/10/13 10:04:14;;;;;;;30.23;16.52;;;17.40;99.90;;;;;;5062507;28;20048;-80
2022/10/13 10:06:40;;;;;;;30.83;16.50;;;17.40;99.90;;;;;;5061400;28;20178;-80
2022/10/13 10:09:32;;;;;;;29.75;15.82;;;17.50;99.90;;;;;;5068329;28;20244;-81
2022/10/13 10:12:00;;;;;;;30.08;16.23;;;17.60;99.90;;;;;;5068011;28;20104;-81
2022/10/13 10:14:27;;;;;;;34.83;19.52;;;17.60;99.90;;;;;;5068334;28;20465;-82
2022/10/13 10:17:22;;;;;;;31.45;18.83;;;17.60;99.90;;;;;;5068348;28;20025;-81
2022/10/13 10:19:59;;;;;;;;;;;17.50;99.90;;;;;;5026205;28;20044;-82
2022/10/13 10:23:04;;;;;;;30.50;17.92;;;17.60;99.90;;;;;;5066126;28;20611;-82
2022/10/13 10:25:36;;;;;;;34.53;18.42;;;17.50;99.90;;;;;;5061985;28;20021;-81
2022/10/13 10:28:13;;;;;;;34.65;16.33;;;17.50;99.90;;;;;;5062455;28;20320;-82
2022/10/13 10:31:02;;;;;;;29.58;15.35;;;17.60;99.90;;;;;;5071235;28;20067;-81
2022/10/13 10:33:49;;;;;;;25.77;14.73;;;17.70;99.90;;;;;;5047148;28;20528;-80
2022/10/13 10:36:26;;;;;;;26.63;14.93;;;17.90;99.90;;;;;;5068467;28;20146;-79
2022/10/13 10:39:01;;;;;;;30.20;14.25;;;18.00;99.90;;;;;;5057673;28;20275;-80
2022/10/13 10:41:30;;;;;;;41.05;15.93;;;18.10;99.90;;;;;;5069329;28;20312;-80
2022/10/13 10:44:06;;;;;;;32.45;16.88;;;18.10;99.90;;;;;;5058428;28;20061;-79
2022/10/13 10:46:35;;;;;;;25.85;13.18;;;18.20;99.90;;;;;;5074925;28;20016;-80
2022/10/13 10:49:10;;;;;;;25.85;12.85;;;18.20;99.90;;;;;;5065350;28;20195;-78
2022/10/13 10:51:38;;;;;;;26.65;14.25;;;18.20;99.90;;;;;;5067968;28;20048;-79
2022/10/13 10:54:47;;;;;;;38.33;19.85;;;18.10;99.90;;;;;;5076942;28;20103;-78
2022/10/13 10:57:24;;;;;;;28.45;15.35;;;17.90;99.90;;;;;;5062742;28;20028;-79
2022/10/13 11:00:06;;;;;;;32.42;14.85;;;17.90;99.90;;;;;;5061408;28;20083;-80
2022/10/13 11:02:48;;;;;;;30.85;17.52;;;17.80;99.90;;;;;;5058965;28;20033;-83
2022/10/13 11:05:16;;;;;;;33.50;19.52;;;17.80;99.90;;;;;;5069628;28;20091;-82
2022/10/13 11:07:42;;;;;;;33.35;17.38;;;17.70;99.90;;;;;;5070190;28;20033;-82
2022/10/13 11:10:15;;;;;;;34.58;17.25;;;17.70;99.90;;;;;;5070006;28;20290;-81
2022/10/13 11:13:17;;;;;;;53.15;28.52;;;17.80;99.90;;;;;;5072700;28;20020;-81
2022/10/13 11:15:44;;;;;;;29.95;17.67;;;17.90;99.90;;;;;;5060276;28;20041;-81
2022/10/13 11:19:04;;;;;;;26.58;13.93;;;18.00;99.90;;;;;;5059246;28;20091;-81
2022/10/13 11:21:51;;;;;;;28.58;12.85;;;18.00;99.90;;;;;;5038894;28;20033;-81
2022/10/13 11:24:35;;;;;;;24.73;11.75;;;18.00;99.90;;;;;;5070836;28;20028;-81
2022/10/13 11:27:06;;;;;;;18.88;9.73;;;17.90;99.90;;;;;;5066999;28;20029;-80
2022/10/13 11:29:52;;;;;;;24.92;11.20;;;17.90;99.90;;;;;;5063380;28;20028;-79
2022/10/13 11:32:29;;;;;;;17.63;9.38;;;17.90;99.90;;;;;;5065136;28;20021;-81
2022/10/13 11:35:04;;;;;;;22.88;10.60;;;17.80;99.90;;;;;;5063521;28;20128;-80
2022/10/13 11:37:38;;;;;;;28.90;10.13;;;17.80;99.90;;;;;;5065029;28;20029;-80
2022/10/13 11:40:04;;;;;;;;;;;17.80;99.90;;;;;;5064322;28;20055;-79
2022/10/13 11:43:05;;;;;;;19.80;8.10;;;17.70;99.90;;;;;;5065732;28;19948;-81
2022/10/13 11:45:50;;;;;;;22.25;8.20;;;17.60;99.90;;;;;;5007364;28;20055;-78
2022/10/13 11:48:29;;;;;;;22.98;9.43;;;17.60;99.90;;;;;;5074112;28;20020;-79
2022/10/13 11:51:14;;;;;;;24.77;12.00;;;17.70;99.90;;;;;;5067916;28;20095;-79
2022/10/13 11:53:39;;;;;;;22.13;9.75;;;17.80;99.90;;;;;;5053042;28;20025;-78
2022/10/13 11:56:18;;;;;;;19.88;9.25;;;17.90;99.90;;;;;;5054876;28;20012;-78
2022/10/13 11:58:44;;;;;;;22.10;9.40;;;18.00;99.90;;;;;;5050626;28;20048;-78
2022/10/13 12:01:14;;;;;;;25.45;9.40;;;18.00;99.90;;;;;;5050221;28;20401;-78
2022/10/13 12:03:45;;;;;;;20.40;9.60;;;17.90;99.90;;;;;;5050459;28;20021;-78
2022/10/13 12:06:33;;;;;;;23.52;11.50;;;18.00;99.90;;;;;;5049469;28;20025;-78
2022/10/13 12:09:16;;;;;;;32.40;13.18;;;17.90;99.90;;;;;;5062286;28;20029;-78
2022/10/13 12:11:43;;;;;;;28.50;13.68;;;17.90;99.90;;;;;;5054807;28;20017;-78
2022/10/13 12:14:31;;;;;;;27.48;13.80;;;17.90;99.90;;;;;;5057569;28;20403;-78
2022/10/13 12:16:58;;;;;;;26.70;12.38;;;17.90;99.90;;;;;;5054537;28;20071;-78
2022/10/13 12:19:26;;;;;;;26.33;10.95;;;17.90;99.90;;;;;;5053412;28;20027;-78
2022/10/13 12:21:55;;;;;;;22.25;10.30;;;17.80;99.90;;;;;;5051886;28;20037;-78
2022/10/13 12:24:26;;;;;;;21.05;10.27;;;17.80;99.90;;;;;;5051970;28;20313;-78
2022/10/13 12:26:52;;;;;;;24.27;11.35;;;17.60;99.90;;;;;;5050190;28;20025;-78
2022/10/13 12:29:21;;;;;;;24.30;10.98;;;17.60;99.90;;;;;;5053772;28;20043;-79
2022/10/13 12:31:49;;;;;;;23.95;10.90;;;17.50;99.90;;;;;;5067791;28;20052;-78
2022/10/13 12:34:26;;;;;;;27.13;12.57;;;17.50;99.90;;;;;;5068454;28;20045;-79
2022/10/13 12:37:03;;;;;;;28.77;10.80;;;17.50;99.90;;;;;;5058840;28;20062;-80
2022/10/13 12:39:32;;;;;;;17.33;10.05;;;17.40;99.90;;;;;;5055210;28;20317;-80
2022/10/13 12:42:01;;;;;;;25.30;11.15;;;17.50;99.90;;;;;;5058947;28;20051;-81
2022/10/13 12:44:29;;;;;;;36.53;11.40;;;17.50;99.90;;;;;;5066322;28;20598;-81
2022/10/13 12:47:00;;;;;;;29.58;11.82;;;17.40;99.90;;;;;;5071520;28;20112;-82